sensor_id;sensor_type;location;lat;lon;timestamp;P1;durP1;ratioP1;P2;durP2;ratioP2
20383;SDS011;46458;50.966;7.002;2024-03-02T00:02:14;3.97;;;2.43;;
20383;SDS011;46458;50.966;7.002;2024-03-02T00:04:44;3.33;;;2.20;;
20383;SDS011;46458;50.966;7.002;2024-03-02T00:07:13;3.03;;;2.13;;
20383;SDS011;46458;50.966;7.002;2024-03-02T00:09:45;3.17;;;1.83;;
20383;SDS011;46458;50.966;7.002;2024-03-02T00:12:15;1.60;;;1.40;;
20383;SDS011;46458;50.966;7.002;2024-03-02T00:14:50;2.33;;;1.67;;
20383;SDS011;46458;50.966;7.002;2024-03-02T00:17:24;2.63;;;1.67;;
20383;SDS011;46458;50.966;7.002;2024-03-02T00:19:53;3.17;;;1.60;;
20383;SDS011;46458;50.966;7.002;2024-03-02T00:22:22;3.83;;;1.80;;
20383;SDS011;46458;50.966;7.002;2024-03-02T00:24:51;2.43;;;1.60;;
20383;SDS011;46458;50.966;7.002;2024-03-02T00:27:19;2.90;;;1.67;;
20383;SDS011;46458;50.966;7.002;2024-03-02T00:29:53;2.00;;;1.27;;
20383;SDS011;46458;50.966;7.002;2024-03-02T00:32:22;4.23;;;2.00;;
20383;SDS011;46458;50.966;7.002;2024-03-02T00:34:53;2.57;;;1.60;;
20383;SDS011;46458;50.966;7.002;2024-03-02T00:37:22;1.97;;;1.50;;
20383;SDS011;46458;50.966;7.002;2024-03-02T00:39:54;2.10;;;1.50;;
20383;SDS011;46458;50.966;7.002;2024-03-02T00:42:23;2.00;;;1.67;;
20383;SDS011;46458;50.966;7.002;2024-03-02T00:44:54;1.87;;;1.50;;
20383;SDS011;46458;50.966;7.002;2024-03-02T00:47:29;1.57;;;1.40;;
20383;SDS011;46458;50.966;7.002;2024-03-02T00:49:58;2.17;;;1.40;;
20383;SDS011;46458;50.966;7.002;2024-03-02T00:52:29;4.33;;;1.70;;
20383;SDS011;46458;50.966;7.002;2024-03-02T00:54:58;1.63;;;1.50;;
20383;SDS011;46458;50.966;7.002;2024-03-02T00:57:27;2.53;;;1.50;;
20383;SDS011;46458;50.966;7.002;2024-03-02T01:00:05;1.50;;;1.30;;
20383;SDS011;46458;50.966;7.002;2024-03-02T01:02:42;1.77;;;1.40;;
20383;SDS011;46458;50.966;7.002;2024-03-02T01:05:11;2.07;;;1.73;;
20383;SDS011;46458;50.966;7.002;2024-03-02T01:07:40;1.87;;;1.43;;
20383;SDS011;46458;50.966;7.002;2024-03-02T01:10:09;2.13;;;1.40;;
20383;SDS011;46458;50.966;7.002;2024-03-02T01:12:38;1.80;;;1.63;;
20383;SDS011;46458;50.966;7.002;2024-03-02T01:15:10;3.27;;;1.63;;
20383;SDS011;46458;50.966;7.002;2024-03-02T01:17:39;4.00;;;1.60;;
20383;SDS011;46458;50.966;7.002;2024-03-02T01:20:08;2.20;;;1.30;;
20383;SDS011;46458;50.966;7.002;2024-03-02T01:22:38;1.90;;;1.50;;
20383;SDS011;46458;50.966;7.002;2024-03-02T01:25:08;2.10;;;1.40;;
20383;SDS011;46458;50.966;7.002;2024-03-02T01:27:36;2.37;;;1.47;;
20383;SDS011;46458;50.966;7.002;2024-03-02T01:30:06;2.77;;;1.57;;
20383;SDS011;46458;50.966;7.002;2024-03-02T01:32:39;2.90;;;1.60;;
20383;SDS011;46458;50.966;7.002;2024-03-02T01:35:11;2.30;;;1.70;;
20383;SDS011;46458;50.966;7.002;2024-03-02T01:37:40;2.37;;;1.60;;
20383;SDS011;46458;50.966;7.002;2024-03-02T01:40:10;1.90;;;1.37;;
20383;SDS011;46458;50.966;7.002;2024-03-02T01:42:41;2.30;;;1.50;;
20383;SDS011;46458;50.966;7.002;2024-03-02T01:45:11;1.60;;;1.40;;
20383;SDS011;46458;50.966;7.002;2024-03-02T01:47:43;2.50;;;1.33;;
20383;SDS011;46458;50.966;7.002;2024-03-02T01:50:12;2.80;;;1.40;;
20383;SDS011;46458;50.966;7.002;2024-03-02T01:52:44;2.40;;;1.80;;
20383;SDS011;46458;50.966;7.002;2024-03-02T01:55:14;2.37;;;1.60;;
20383;SDS011;46458;50.966;7.002;2024-03-02T01:57:43;1.77;;;1.50;;
20383;SDS011;46458;50.966;7.002;2024-03-02T02:00:13;6.20;;;3.03;;
20383;SDS011;46458;50.966;7.002;2024-03-02T02:02:48;5.73;;;2.77;;
20383;SDS011;46458;50.966;7.002;2024-03-02T02:05:17;4.53;;;2.07;;
20383;SDS011;46458;50.966;7.002;2024-03-02T02:07:46;2.67;;;1.70;;
20383;SDS011;46458;50.966;7.002;2024-03-02T02:10:15;2.87;;;1.63;;
20383;SDS011;46458;50.966;7.002;2024-03-02T02:12:44;2.47;;;1.63;;
20383;SDS011;46458;50.966;7.002;2024-03-02T02:15:27;2.03;;;1.50;;
20383;SDS011;46458;50.966;7.002;2024-03-02T02:18:03;3.80;;;1.60;;
20383;SDS011;46458;50.966;7.002;2024-03-02T02:20:32;2.77;;;1.20;;
20383;SDS011;46458;50.966;7.002;2024-03-02T02:23:03;2.20;;;1.50;;
20383;SDS011;46458;50.966;7.002;2024-03-02T02:25:35;1.90;;;1.40;;
20383;SDS011;46458;50.966;7.002;2024-03-02T02:28:04;1.87;;;1.50;;
20383;SDS011;46458;50.966;7.002;2024-03-02T02:30:35;2.63;;;1.30;;
20383;SDS011;46458;50.966;7.002;2024-03-02T02:33:04;2.07;;;1.40;;
20383;SDS011;46458;50.966;7.002;2024-03-02T02:35:33;2.27;;;1.30;;
20383;SDS011;46458;50.966;7.002;2024-03-02T02:38:04;1.57;;;1.47;;
20383;SDS011;46458;50.966;7.002;2024-03-02T02:40:33;1.77;;;1.43;;
20383;SDS011;46458;50.966;7.002;2024-03-02T02:43:02;2.53;;;1.57;;
20383;SDS011;46458;50.966;7.002;2024-03-02T02:45:32;1.73;;;1.47;;
20383;SDS011;46458;50.966;7.002;2024-03-02T02:48:01;1.77;;;1.43;;
20383;SDS011;46458;50.966;7.002;2024-03-02T02:50:32;1.30;;;1.10;;
20383;SDS011;46458;50.966;7.002;2024-03-02T02:53:03;1.97;;;1.47;;
20383;SDS011;46458;50.966;7.002;2024-03-02T02:55:34;1.67;;;1.30;;
20383;SDS011;46458;50.966;7.002;2024-03-02T02:58:05;1.37;;;1.20;;
20383;SDS011;46458;50.966;7.002;2024-03-02T03:00:34;1.97;;;1.53;;
20383;SDS011;46458;50.966;7.002;2024-03-02T03:03:05;2.23;;;1.40;;
20383;SDS011;46458;50.966;7.002;2024-03-02T03:05:34;1.30;;;1.20;;
20383;SDS011;46458;50.966;7.002;2024-03-02T03:08:08;2.23;;;1.60;;
20383;SDS011;46458;50.966;7.002;2024-03-02T03:10:37;2.30;;;1.70;;
20383;SDS011;46458;50.966;7.002;2024-03-02T03:13:08;2.27;;;1.60;;
20383;SDS011;46458;50.966;7.002;2024-03-02T03:15:37;1.63;;;1.40;;
20383;SDS011;46458;50.966;7.002;2024-03-02T03:18:08;1.83;;;1.37;;
20383;SDS011;46458;50.966;7.002;2024-03-02T03:20:36;2.03;;;1.70;;
20383;SDS011;46458;50.966;7.002;2024-03-02T03:23:08;2.13;;;1.27;;
20383;SDS011;46458;50.966;7.002;2024-03-02T03:25:40;2.03;;;1.37;;
20383;SDS011;46458;50.966;7.002;2024-03-02T03:28:09;2.30;;;1.73;;
20383;SDS011;46458;50.966;7.002;2024-03-02T03:30:35;3.03;;;1.50;;
20383;SDS011;46458;50.966;7.002;2024-03-02T03:33:07;3.57;;;1.40;;
20383;SDS011;46458;50.966;7.002;2024-03-02T03:35:39;2.23;;;1.30;;
20383;SDS011;46458;50.966;7.002;2024-03-02T03:38:11;2.90;;;1.80;;
20383;SDS011;46458;50.966;7.002;2024-03-02T03:40:40;2.63;;;1.53;;
20383;SDS011;46458;50.966;7.002;2024-03-02T03:43:10;1.93;;;1.20;;
20383;SDS011;46458;50.966;7.002;2024-03-02T03:45:39;1.80;;;1.20;;
20383;SDS011;46458;50.966;7.002;2024-03-02T03:48:08;1.70;;;1.17;;
20383;SDS011;46458;50.966;7.002;2024-03-02T03:50:37;2.47;;;1.67;;
20383;SDS011;46458;50.966;7.002;2024-03-02T03:53:18;2.90;;;1.40;;
20383;SDS011;46458;50.966;7.002;2024-03-02T03:55:47;3.80;;;1.47;;
20383;SDS011;46458;50.966;7.002;2024-03-02T03:58:17;2.47;;;1.67;;
20383;SDS011;46458;50.966;7.002;2024-03-02T04:00:46;2.93;;;1.43;;
20383;SDS011;46458;50.966;7.002;2024-03-02T04:03:15;2.27;;;1.60;;
20383;SDS011;46458;50.966;7.002;2024-03-02T04:05:43;3.00;;;1.80;;
20383;SDS011;46458;50.966;7.002;2024-03-02T04:08:15;3.33;;;1.40;;
20383;SDS011;46458;50.966;7.002;2024-03-02T04:10:43;2.67;;;1.57;;
20383;SDS011;46458;50.966;7.002;2024-03-02T04:13:12;2.63;;;1.53;;
20383;SDS011;46458;50.966;7.002;2024-03-02T04:15:50;1.70;;;1.60;;
20383;SDS011;46458;50.966;7.002;2024-03-02T04:18:19;2.77;;;1.20;;
20383;SDS011;46458;50.966;7.002;2024-03-02T04:20:47;2.10;;;1.20;;
20383;SDS011;46458;50.966;7.002;2024-03-02T04:23:19;1.80;;;1.23;;
20383;SDS011;46458;50.966;7.002;2024-03-02T04:25:47;2.50;;;1.37;;
20383;SDS011;46458;50.966;7.002;2024-03-02T04:28:16;3.63;;;1.53;;
20383;SDS011;46458;50.966;7.002;2024-03-02T04:30:45;1.90;;;1.30;;
20383;SDS011;46458;50.966;7.002;2024-03-02T04:33:17;1.87;;;1.67;;
20383;SDS011;46458;50.966;7.002;2024-03-02T04:35:45;1.97;;;1.50;;
20383;SDS011;46458;50.966;7.002;2024-03-02T04:38:14;2.97;;;1.57;;
20383;SDS011;46458;50.966;7.002;2024-03-02T04:40:46;2.17;;;1.60;;
20383;SDS011;46458;50.966;7.002;2024-03-02T04:43:15;2.70;;;1.60;;
20383;SDS011;46458;50.966;7.002;2024-03-02T04:45:45;4.07;;;1.67;;
20383;SDS011;46458;50.966;7.002;2024-03-02T04:48:16;2.97;;;1.50;;
20383;SDS011;46458;50.966;7.002;2024-03-02T04:50:44;2.60;;;1.50;;
20383;SDS011;46458;50.966;7.002;2024-03-02T04:53:13;3.43;;;1.80;;
20383;SDS011;46458;50.966;7.002;2024-03-02T04:55:44;1.87;;;1.70;;
20383;SDS011;46458;50.966;7.002;2024-03-02T04:58:28;2.77;;;1.77;;
20383;SDS011;46458;50.966;7.002;2024-03-02T05:00:57;3.33;;;1.83;;
20383;SDS011;46458;50.966;7.002;2024-03-02T05:03:26;3.97;;;1.60;;
20383;SDS011;46458;50.966;7.002;2024-03-02T05:05:55;3.50;;;2.03;;
20383;SDS011;46458;50.966;7.002;2024-03-02T05:08:24;3.17;;;1.70;;
20383;SDS011;46458;50.966;7.002;2024-03-02T05:10:55;2.20;;;1.80;;
20383;SDS011;46458;50.966;7.002;2024-03-02T05:13:44;2.87;;;1.70;;
20383;SDS011;46458;50.966;7.002;2024-03-02T05:16:10;2.87;;;1.70;;
20383;SDS011;46458;50.966;7.002;2024-03-02T05:18:39;1.50;;;1.40;;
20383;SDS011;46458;50.966;7.002;2024-03-02T05:21:11;2.47;;;1.70;;
20383;SDS011;46458;50.966;7.002;2024-03-02T05:23:40;2.80;;;1.70;;
20383;SDS011;46458;50.966;7.002;2024-03-02T05:26:12;2.60;;;1.60;;
20383;SDS011;46458;50.966;7.002;2024-03-02T05:28:40;4.67;;;1.90;;
20383;SDS011;46458;50.966;7.002;2024-03-02T05:31:10;2.90;;;1.80;;
20383;SDS011;46458;50.966;7.002;2024-03-02T05:33:39;1.93;;;1.70;;
20383;SDS011;46458;50.966;7.002;2024-03-02T05:36:08;2.30;;;1.83;;
20383;SDS011;46458;50.966;7.002;2024-03-02T05:38:38;2.20;;;1.90;;
20383;SDS011;46458;50.966;7.002;2024-03-02T05:41:06;2.43;;;1.80;;
20383;SDS011;46458;50.966;7.002;2024-03-02T05:43:38;4.70;;;2.20;;
20383;SDS011;46458;50.966;7.002;2024-03-02T05:46:07;4.10;;;2.00;;
20383;SDS011;46458;50.966;7.002;2024-03-02T05:48:36;3.37;;;1.70;;
20383;SDS011;46458;50.966;7.002;2024-03-02T05:51:05;4.10;;;1.90;;
20383;SDS011;46458;50.966;7.002;2024-03-02T05:53:37;7.77;;;2.03;;
20383;SDS011;46458;50.966;7.002;2024-03-02T05:56:10;3.13;;;1.97;;
20383;SDS011;46458;50.966;7.002;2024-03-02T05:58:43;2.47;;;1.67;;
20383;SDS011;46458;50.966;7.002;2024-03-02T06:01:23;2.70;;;1.97;;
20383;SDS011;46458;50.966;7.002;2024-03-02T06:03:54;2.33;;;1.80;;
20383;SDS011;46458;50.966;7.002;2024-03-02T06:06:24;2.77;;;1.90;;
20383;SDS011;46458;50.966;7.002;2024-03-02T06:08:53;2.87;;;1.90;;
20383;SDS011;46458;50.966;7.002;2024-03-02T06:11:22;4.40;;;2.33;;
20383;SDS011;46458;50.966;7.002;2024-03-02T06:13:53;3.80;;;2.30;;
20383;SDS011;46458;50.966;7.002;2024-03-02T06:16:25;3.27;;;2.10;;
20383;SDS011;46458;50.966;7.002;2024-03-02T06:18:53;4.20;;;2.13;;
20383;SDS011;46458;50.966;7.002;2024-03-02T06:21:23;3.13;;;2.20;;
20383;SDS011;46458;50.966;7.002;2024-03-02T06:23:52;2.77;;;2.53;;
20383;SDS011;46458;50.966;7.002;2024-03-02T06:26:28;3.63;;;2.53;;
20383;SDS011;46458;50.966;7.002;2024-03-02T06:29:02;3.30;;;2.10;;
20383;SDS011;46458;50.966;7.002;2024-03-02T06:31:33;2.77;;;2.10;;
20383;SDS011;46458;50.966;7.002;2024-03-02T06:34:02;4.70;;;2.27;;
20383;SDS011;46458;50.966;7.002;2024-03-02T06:36:29;2.77;;;2.20;;
20383;SDS011;46458;50.966;7.002;2024-03-02T06:38:58;3.70;;;2.50;;
20383;SDS011;46458;50.966;7.002;2024-03-02T06:41:26;3.87;;;2.80;;
20383;SDS011;46458;50.966;7.002;2024-03-02T06:43:56;6.30;;;2.83;;
20383;SDS011;46458;50.966;7.002;2024-03-02T06:46:28;6.33;;;2.80;;
20383;SDS011;46458;50.966;7.002;2024-03-02T06:48:57;3.17;;;2.47;;
20383;SDS011;46458;50.966;7.002;2024-03-02T06:51:27;3.27;;;2.43;;
20383;SDS011;46458;50.966;7.002;2024-03-02T06:53:56;5.27;;;2.50;;
20383;SDS011;46458;50.966;7.002;2024-03-02T06:56:26;3.77;;;2.50;;
20383;SDS011;46458;50.966;7.002;2024-03-02T06:58:56;4.50;;;2.70;;
20383;SDS011;46458;50.966;7.002;2024-03-02T07:01:24;4.07;;;2.43;;
20383;SDS011;46458;50.966;7.002;2024-03-02T07:03:58;4.10;;;2.80;;
20383;SDS011;46458;50.966;7.002;2024-03-02T07:06:27;3.80;;;2.80;;
20383;SDS011;46458;50.966;7.002;2024-03-02T07:08:56;4.57;;;2.60;;
20383;SDS011;46458;50.966;7.002;2024-03-02T07:11:25;4.77;;;2.70;;
20383;SDS011;46458;50.966;7.002;2024-03-02T07:13:56;4.37;;;2.67;;
20383;SDS011;46458;50.966;7.002;2024-03-02T07:16:25;3.00;;;2.40;;
20383;SDS011;46458;50.966;7.002;2024-03-02T07:19:00;4.07;;;2.57;;
20383;SDS011;46458;50.966;7.002;2024-03-02T07:21:29;6.13;;;2.90;;
20383;SDS011;46458;50.966;7.002;2024-03-02T07:23:58;3.30;;;2.73;;
20383;SDS011;46458;50.966;7.002;2024-03-02T07:26:31;4.80;;;2.93;;
20383;SDS011;46458;50.966;7.002;2024-03-02T07:29:00;4.80;;;2.50;;
20383;SDS011;46458;50.966;7.002;2024-03-02T07:31:32;3.60;;;2.77;;
20383;SDS011;46458;50.966;7.002;2024-03-02T07:34:04;3.77;;;3.00;;
20383;SDS011;46458;50.966;7.002;2024-03-02T07:36:32;4.00;;;2.30;;
20383;SDS011;46458;50.966;7.002;2024-03-02T07:39:07;3.30;;;2.53;;
20383;SDS011;46458;50.966;7.002;2024-03-02T07:41:36;4.03;;;2.83;;
20383;SDS011;46458;50.966;7.002;2024-03-02T07:44:05;4.13;;;2.40;;
20383;SDS011;46458;50.966;7.002;2024-03-02T07:46:34;5.20;;;2.80;;
20383;SDS011;46458;50.966;7.002;2024-03-02T07:49:05;3.67;;;2.57;;
20383;SDS011;46458;50.966;7.002;2024-03-02T07:51:34;4.00;;;2.57;;
20383;SDS011;46458;50.966;7.002;2024-03-02T07:54:04;3.80;;;2.60;;
20383;SDS011;46458;50.966;7.002;2024-03-02T07:56:32;3.60;;;2.17;;
20383;SDS011;46458;50.966;7.002;2024-03-02T07:59:04;6.27;;;3.20;;
20383;SDS011;46458;50.966;7.002;2024-03-02T08:01:36;3.10;;;2.40;;
20383;SDS011;46458;50.966;7.002;2024-03-02T08:04:07;4.63;;;2.70;;
20383;SDS011;46458;50.966;7.002;2024-03-02T08:06:36;3.63;;;2.43;;
20383;SDS011;46458;50.966;7.002;2024-03-02T08:09:05;4.10;;;2.60;;
20383;SDS011;46458;50.966;7.002;2024-03-02T08:11:35;5.70;;;2.73;;
20383;SDS011;46458;50.966;7.002;2024-03-02T08:14:04;4.23;;;2.53;;
20383;SDS011;46458;50.966;7.002;2024-03-02T08:16:33;3.37;;;2.53;;
20383;SDS011;46458;50.966;7.002;2024-03-02T08:19:02;5.07;;;2.63;;
20383;SDS011;46458;50.966;7.002;2024-03-02T08:21:33;2.83;;;2.30;;
20383;SDS011;46458;50.966;7.002;2024-03-02T08:24:02;3.80;;;2.60;;
20383;SDS011;46458;50.966;7.002;2024-03-02T08:26:34;5.90;;;2.60;;
20383;SDS011;46458;50.966;7.002;2024-03-02T08:29:03;4.67;;;2.40;;
20383;SDS011;46458;50.966;7.002;2024-03-02T08:31:32;3.67;;;2.63;;
20383;SDS011;46458;50.966;7.002;2024-03-02T08:34:01;6.70;;;2.50;;
20383;SDS011;46458;50.966;7.002;2024-03-02T08:36:33;5.20;;;2.77;;
20383;SDS011;46458;50.966;7.002;2024-03-02T08:39:02;3.50;;;2.60;;
20383;SDS011;46458;50.966;7.002;2024-03-02T08:41:40;3.13;;;2.40;;
20383;SDS011;46458;50.966;7.002;2024-03-02T08:44:09;3.63;;;2.50;;
20383;SDS011;46458;50.966;7.002;2024-03-02T08:46:39;5.03;;;2.63;;
20383;SDS011;46458;50.966;7.002;2024-03-02T08:49:08;5.50;;;2.90;;
20383;SDS011;46458;50.966;7.002;2024-03-02T08:51:46;2.80;;;2.40;;
20383;SDS011;46458;50.966;7.002;2024-03-02T08:54:20;3.60;;;2.20;;
20383;SDS011;46458;50.966;7.002;2024-03-02T08:56:50;3.83;;;2.10;;
20383;SDS011;46458;50.966;7.002;2024-03-02T08:59:19;3.10;;;2.00;;
20383;SDS011;46458;50.966;7.002;2024-03-02T09:01:47;2.40;;;1.87;;
20383;SDS011;46458;50.966;7.002;2024-03-02T09:04:16;3.77;;;1.90;;
20383;SDS011;46458;50.966;7.002;2024-03-02T09:06:50;1.77;;;1.50;;
20383;SDS011;46458;50.966;7.002;2024-03-02T09:09:26;2.80;;;1.63;;
20383;SDS011;46458;50.966;7.002;2024-03-02T09:11:58;2.90;;;1.30;;
20383;SDS011;46458;50.966;7.002;2024-03-02T09:14:27;2.87;;;1.63;;
20383;SDS011;46458;50.966;7.002;2024-03-02T09:17:01;2.47;;;1.23;;
20383;SDS011;46458;50.966;7.002;2024-03-02T09:19:30;2.80;;;1.77;;
20383;SDS011;46458;50.966;7.002;2024-03-02T09:22:03;2.60;;;1.63;;
20383;SDS011;46458;50.966;7.002;2024-03-02T09:24:42;3.80;;;1.60;;
20383;SDS011;46458;50.966;7.002;2024-03-02T09:27:13;2.27;;;1.30;;
20383;SDS011;46458;50.966;7.002;2024-03-02T09:29:42;1.60;;;1.40;;
20383;SDS011;46458;50.966;7.002;2024-03-02T09:32:14;2.30;;;1.50;;
20383;SDS011;46458;50.966;7.002;2024-03-02T09:34:43;1.60;;;1.43;;
20383;SDS011;46458;50.966;7.002;2024-03-02T09:37:18;2.50;;;1.50;;
20383;SDS011;46458;50.966;7.002;2024-03-02T09:39:49;1.97;;;1.23;;
20383;SDS011;46458;50.966;7.002;2024-03-02T09:42:18;2.90;;;1.53;;
20383;SDS011;46458;50.966;7.002;2024-03-02T09:44:48;3.57;;;1.70;;
20383;SDS011;46458;50.966;7.002;2024-03-02T09:47:17;1.70;;;1.60;;
20383;SDS011;46458;50.966;7.002;2024-03-02T09:49:46;2.50;;;1.47;;
20383;SDS011;46458;50.966;7.002;2024-03-02T09:52:18;4.97;;;1.80;;
20383;SDS011;46458;50.966;7.002;2024-03-02T09:54:48;3.63;;;1.80;;
20383;SDS011;46458;50.966;7.002;2024-03-02T09:57:17;1.97;;;1.60;;
20383;SDS011;46458;50.966;7.002;2024-03-02T09:59:46;4.27;;;1.53;;
20383;SDS011;46458;50.966;7.002;2024-03-02T10:02:18;2.97;;;1.50;;
20383;SDS011;46458;50.966;7.002;2024-03-02T10:04:47;1.97;;;1.43;;
20383;SDS011;46458;50.966;7.002;2024-03-02T10:07:20;4.67;;;1.70;;
20383;SDS011;46458;50.966;7.002;2024-03-02T10:09:51;3.83;;;1.80;;
20383;SDS011;46458;50.966;7.002;2024-03-02T10:12:20;2.27;;;1.57;;
20383;SDS011;46458;50.966;7.002;2024-03-02T10:14:49;2.43;;;1.57;;
20383;SDS011;46458;50.966;7.002;2024-03-02T10:17:18;2.63;;;1.80;;
20383;SDS011;46458;50.966;7.002;2024-03-02T10:19:46;2.77;;;1.70;;
20383;SDS011;46458;50.966;7.002;2024-03-02T10:22:15;1.73;;;1.30;;
20383;SDS011;46458;50.966;7.002;2024-03-02T10:24:50;3.37;;;1.50;;
20383;SDS011;46458;50.966;7.002;2024-03-02T10:27:23;2.33;;;1.60;;
20383;SDS011;46458;50.966;7.002;2024-03-02T10:29:55;2.67;;;1.47;;
20383;SDS011;46458;50.966;7.002;2024-03-02T10:32:25;3.00;;;1.50;;
20383;SDS011;46458;50.966;7.002;2024-03-02T10:34:57;2.27;;;1.37;;
20383;SDS011;46458;50.966;7.002;2024-03-02T10:37:27;2.73;;;1.37;;
20383;SDS011;46458;50.966;7.002;2024-03-02T10:39:59;2.40;;;1.57;;
20383;SDS011;46458;50.966;7.002;2024-03-02T10:42:33;1.37;;;1.23;;
20383;SDS011;46458;50.966;7.002;2024-03-02T10:45:04;3.63;;;1.60;;
20383;SDS011;46458;50.966;7.002;2024-03-02T10:47:35;2.37;;;1.57;;
20383;SDS011;46458;50.966;7.002;2024-03-02T10:50:06;3.07;;;1.43;;
20383;SDS011;46458;50.966;7.002;2024-03-02T10:52:36;2.10;;;1.40;;
20383;SDS011;46458;50.966;7.002;2024-03-02T10:55:10;2.50;;;1.40;;
20383;SDS011;46458;50.966;7.002;2024-03-02T10:57:41;2.58;;;1.60;;
20383;SDS011;46458;50.966;7.002;2024-03-02T11:00:13;1.53;;;1.33;;
20383;SDS011;46458;50.966;7.002;2024-03-02T11:02:50;2.90;;;1.50;;
20383;SDS011;46458;50.966;7.002;2024-03-02T11:05:24;2.43;;;1.30;;
20383;SDS011;46458;50.966;7.002;2024-03-02T11:07:57;2.67;;;1.40;;
20383;SDS011;46458;50.966;7.002;2024-03-02T11:10:38;2.53;;;1.40;;
20383;SDS011;46458;50.966;7.002;2024-03-02T11:13:13;2.20;;;1.38;;
20383;SDS011;46458;50.966;7.002;2024-03-02T11:15:43;3.53;;;1.50;;
20383;SDS011;46458;50.966;7.002;2024-03-02T11:18:12;3.97;;;1.57;;
20383;SDS011;46458;50.966;7.002;2024-03-02T11:20:43;2.07;;;1.27;;
20383;SDS011;46458;50.966;7.002;2024-03-02T11:23:12;2.77;;;1.40;;
20383;SDS011;46458;50.966;7.002;2024-03-02T11:25:46;5.83;;;2.53;;
20383;SDS011;46458;50.966;7.002;2024-03-02T11:28:15;1.77;;;1.20;;
20383;SDS011;46458;50.966;7.002;2024-03-02T11:30:50;2.63;;;1.52;;
20383;SDS011;46458;50.966;7.002;2024-03-02T11:33:23;1.42;;;1.13;;
20383;SDS011;46458;50.966;7.002;2024-03-02T11:35:56;2.33;;;1.73;;
20383;SDS011;46458;50.966;7.002;2024-03-02T11:38:31;2.17;;;1.47;;
20383;SDS011;46458;50.966;7.002;2024-03-02T11:41:05;2.38;;;1.40;;
20383;SDS011;46458;50.966;7.002;2024-03-02T11:43:39;1.97;;;1.17;;
20383;SDS011;46458;50.966;7.002;2024-03-02T11:46:09;3.33;;;1.33;;
20383;SDS011;46458;50.966;7.002;2024-03-02T11:48:39;2.17;;;1.27;;
20383;SDS011;46458;50.966;7.002;2024-03-02T11:51:10;1.33;;;1.10;;
20383;SDS011;46458;50.966;7.002;2024-03-02T11:53:40;1.83;;;1.30;;
20383;SDS011;46458;50.966;7.002;2024-03-02T11:56:15;1.63;;;1.30;;
20383;SDS011;46458;50.966;7.002;2024-03-02T11:58:44;2.35;;;1.30;;
20383;SDS011;46458;50.966;7.002;2024-03-02T12:01:14;1.73;;;1.20;;
20383;SDS011;46458;50.966;7.002;2024-03-02T12:03:43;2.33;;;1.40;;
20383;SDS011;46458;50.966;7.002;2024-03-02T12:06:13;1.30;;;1.10;;
20383;SDS011;46458;50.966;7.002;2024-03-02T12:08:44;1.17;;;1.00;;
20383;SDS011;46458;50.966;7.002;2024-03-02T12:11:15;2.75;;;1.55;;
20383;SDS011;46458;50.966;7.002;2024-03-02T12:13:51;1.90;;;1.10;;
20383;SDS011;46458;50.966;7.002;2024-03-02T12:16:23;4.40;;;1.58;;
20383;SDS011;46458;50.966;7.002;2024-03-02T12:18:52;2.15;;;1.38;;
20383;SDS011;46458;50.966;7.002;2024-03-02T12:21:21;3.33;;;1.63;;
20383;SDS011;46458;50.966;7.002;2024-03-02T12:23:50;2.35;;;1.50;;
20383;SDS011;46458;50.966;7.002;2024-03-02T12:26:22;2.97;;;1.70;;
20383;SDS011;46458;50.966;7.002;2024-03-02T12:28:51;2.30;;;1.52;;
20383;SDS011;46458;50.966;7.002;2024-03-02T12:31:22;2.03;;;1.65;;
20383;SDS011;46458;50.966;7.002;2024-03-02T12:33:56;2.78;;;1.80;;
20383;SDS011;46458;50.966;7.002;2024-03-02T12:36:27;2.92;;;2.13;;
20383;SDS011;46458;50.966;7.002;2024-03-02T12:38:56;2.13;;;1.70;;
20383;SDS011;46458;50.966;7.002;2024-03-02T12:41:27;2.60;;;1.63;;
20383;SDS011;46458;50.966;7.002;2024-03-02T12:44:02;3.10;;;1.77;;
20383;SDS011;46458;50.966;7.002;2024-03-02T12:46:31;1.45;;;0.80;;
20383;SDS011;46458;50.966;7.002;2024-03-02T12:49:05;1.80;;;1.00;;
20383;SDS011;46458;50.966;7.002;2024-03-02T12:51:39;1.30;;;0.77;;
20383;SDS011;46458;50.966;7.002;2024-03-02T12:54:09;2.05;;;1.13;;
20383;SDS011;46458;50.966;7.002;2024-03-02T12:56:41;1.38;;;1.10;;
20383;SDS011;46458;50.966;7.002;2024-03-02T12:59:17;1.67;;;1.40;;
20383;SDS011;46458;50.966;7.002;2024-03-02T13:01:51;2.72;;;1.23;;
20383;SDS011;46458;50.966;7.002;2024-03-02T13:04:22;2.78;;;1.60;;
20383;SDS011;46458;50.966;7.002;2024-03-02T13:06:53;1.63;;;1.23;;
20383;SDS011;46458;50.966;7.002;2024-03-02T13:09:23;1.33;;;1.13;;
20383;SDS011;46458;50.966;7.002;2024-03-02T13:11:55;1.65;;;1.48;;
20383;SDS011;46458;50.966;7.002;2024-03-02T13:14:24;1.50;;;1.02;;
20383;SDS011;46458;50.966;7.002;2024-03-02T13:16:53;2.28;;;1.08;;
20383;SDS011;46458;50.966;7.002;2024-03-02T13:19:22;1.50;;;1.15;;
20383;SDS011;46458;50.966;7.002;2024-03-02T13:21:51;1.70;;;1.20;;
20383;SDS011;46458;50.966;7.002;2024-03-02T13:24:20;2.17;;;1.13;;
20383;SDS011;46458;50.966;7.002;2024-03-02T13:26:50;2.47;;;1.42;;
20383;SDS011;46458;50.966;7.002;2024-03-02T13:29:24;1.20;;;1.00;;
20383;SDS011;46458;50.966;7.002;2024-03-02T13:31:53;1.45;;;1.30;;
20383;SDS011;46458;50.966;7.002;2024-03-02T13:34:23;1.48;;;1.25;;
20383;SDS011;46458;50.966;7.002;2024-03-02T13:36:51;5.03;;;1.63;;
20383;SDS011;46458;50.966;7.002;2024-03-02T13:39:20;3.65;;;2.65;;
20383;SDS011;46458;50.966;7.002;2024-03-02T13:41:49;2.88;;;1.85;;
20383;SDS011;46458;50.966;7.002;2024-03-02T13:44:31;3.40;;;2.13;;
20383;SDS011;46458;50.966;7.002;2024-03-02T13:47:00;3.10;;;2.28;;
20383;SDS011;46458;50.966;7.002;2024-03-02T13:49:29;1.85;;;1.30;;
20383;SDS011;46458;50.966;7.002;2024-03-02T13:52:02;1.88;;;1.15;;
20383;SDS011;46458;50.966;7.002;2024-03-02T13:54:39;3.97;;;1.95;;
20383;SDS011;46458;50.966;7.002;2024-03-02T13:57:11;2.88;;;1.70;;
20383;SDS011;46458;50.966;7.002;2024-03-02T13:59:44;2.72;;;1.55;;
20383;SDS011;46458;50.966;7.002;2024-03-02T14:02:13;2.22;;;1.33;;
20383;SDS011;46458;50.966;7.002;2024-03-02T14:04:42;1.63;;;1.00;;
20383;SDS011;46458;50.966;7.002;2024-03-02T14:07:11;1.52;;;1.00;;
20383;SDS011;46458;50.966;7.002;2024-03-02T14:09:40;2.17;;;1.63;;
20383;SDS011;46458;50.966;7.002;2024-03-02T14:12:09;1.20;;;0.90;;
20383;SDS011;46458;50.966;7.002;2024-03-02T14:14:38;1.85;;;1.20;;
20383;SDS011;46458;50.966;7.002;2024-03-02T14:17:10;4.90;;;2.80;;
20383;SDS011;46458;50.966;7.002;2024-03-02T14:19:40;3.67;;;2.28;;
20383;SDS011;46458;50.966;7.002;2024-03-02T14:22:09;2.35;;;1.73;;
20383;SDS011;46458;50.966;7.002;2024-03-02T14:24:42;2.22;;;1.40;;
20383;SDS011;46458;50.966;7.002;2024-03-02T14:27:11;2.17;;;1.20;;
20383;SDS011;46458;50.966;7.002;2024-03-02T14:29:40;1.83;;;1.40;;
20383;SDS011;46458;50.966;7.002;2024-03-02T14:32:13;2.38;;;1.17;;
20383;SDS011;46458;50.966;7.002;2024-03-02T14:34:44;1.38;;;1.23;;
20383;SDS011;46458;50.966;7.002;2024-03-02T14:37:13;2.20;;;1.17;;
20383;SDS011;46458;50.966;7.002;2024-03-02T14:39:42;1.65;;;1.20;;
20383;SDS011;46458;50.966;7.002;2024-03-02T14:42:11;1.60;;;1.10;;
20383;SDS011;46458;50.966;7.002;2024-03-02T14:44:40;1.95;;;1.70;;
20383;SDS011;46458;50.966;7.002;2024-03-02T14:47:09;2.08;;;1.20;;
20383;SDS011;46458;50.966;7.002;2024-03-02T14:49:41;3.20;;;1.92;;
20383;SDS011;46458;50.966;7.002;2024-03-02T14:52:14;2.55;;;1.50;;
20383;SDS011;46458;50.966;7.002;2024-03-02T14:54:44;1.80;;;1.38;;
20383;SDS011;46458;50.966;7.002;2024-03-02T14:57:13;3.30;;;1.50;;
20383;SDS011;46458;50.966;7.002;2024-03-02T14:59:41;3.23;;;1.53;;
20383;SDS011;46458;50.966;7.002;2024-03-02T15:02:13;1.73;;;1.53;;
20383;SDS011;46458;50.966;7.002;2024-03-02T15:04:43;2.20;;;1.20;;
20383;SDS011;46458;50.966;7.002;2024-03-02T15:07:13;1.40;;;1.17;;
20383;SDS011;46458;50.966;7.002;2024-03-02T15:09:42;2.20;;;1.30;;